Time;durP1;ratioP1;P1;durP2;ratioP2;P2;SDS_P1;SDS_P2;PMS_P1;PMS_P2;Temp;Humidity;BMP_temperature;BMP_pressure;BME280_temperature;BME280_humidity;BME280_pressure;Samples;Min_cycle;Max_cycle;Signal;HPM_P1;HPM_P2
2022/01/31 00:00:35;;;;;;;34.23;5.40;;;;;;;4.04;79.27;101557.88;5064666;28;20235;-73
2022/01/31 00:03:02;;;;;;;38.13;6.37;;;;;;;4.03;79.31;101546.00;5054809;28;20714;-73
2022/01/31 00:05:27;;;;;;;32.87;6.23;;;;;;;4.00;79.06;101533.13;5053876;28;20193;-73
2022/01/31 00:07:53;;;;;;;27.23;5.53;;;;;;;3.99;79.84;101527.97;5053232;28;20200;-73
2022/01/31 00:10:27;;;;;;;32.00;6.10;;;;;;;3.99;80.01;101521.28;5044468;28;20209;-73
2022/01/31 00:13:05;;;;;;;34.03;6.00;;;;;;;3.95;79.71;101504.16;5069721;28;20654;-73
2022/01/31 00:15:32;;;;;;;30.73;5.40;;;;;;;3.93;79.64;101498.13;5064211;28;20201;-73
2022/01/31 00:17:58;;;;;;;30.90;6.20;;;;;;;3.93;79.82;101497.25;5057059;28;20178;-73
2022/01/31 00:20:23;;;;;;;36.20;6.37;;;;;;;3.91;80.50;101488.72;5061500;28;20216;-73
2022/01/31 00:22:49;;;;;;;30.53;5.77;;;;;;;3.90;79.95;101482.75;5056188;28;20205;-73
2022/01/31 00:25:14;;;;;;;33.60;6.40;;;;;;;3.89;80.05;101472.53;5070989;28;20271;-73
2022/01/31 00:27:40;;;;;;;28.03;5.23;;;;;;;3.91;79.93;101476.91;5062477;28;20186;-73
2022/01/31 00:30:06;;;;;;;31.87;6.40;;;;;;;3.88;80.40;101464.09;5065335;28;20236;-73
2022/01/31 00:32:32;;;;;;;33.23;6.77;;;;;;;3.89;79.99;101465.81;5066951;28;20214;-73
2022/01/31 00:34:58;;;;;;;31.77;6.03;;;;;;;3.90;79.10;101451.47;5071477;28;20189;-73
2022/01/31 00:37:24;;;;;;;35.13;7.27;;;;;;;3.88;79.79;101438.75;5060352;28;20268;-73
2022/01/31 00:39:49;;;;;;;34.03;6.83;;;;;;;3.86;79.73;101425.13;5056346;28;20358;-73
2022/01/31 00:42:15;;;;;;;24.33;5.47;;;;;;;3.85;79.35;101412.38;5069455;28;20739;-73
2022/01/31 00:44:47;;;;;;;34.57;6.57;;;;;;;3.81;80.26;101406.28;5067115;28;20200;-73
2022/01/31 00:47:19;;;;;;;35.67;5.60;;;;;;;3.79;79.95;101392.66;5058829;28;20196;-73
2022/01/31 00:50:05;;;;;;;29.13;6.40;;;;;;;3.77;79.78;101386.63;5065174;28;20205;-73
2022/01/31 00:52:31;;;;;;;29.27;5.57;;;;;;;3.75;79.85;101378.09;5053747;28;20689;-73
2022/01/31 00:54:57;;;;;;;31.13;5.20;;;;;;;3.74;79.86;101373.81;5061376;28;20196;-73
2022/01/31 00:57:23;;;;;;;23.07;5.07;;;;;;;3.72;79.19;101365.25;5067918;28;20556;-73
2022/01/31 00:59:50;;;;;;;31.83;5.63;;;;;;;3.69;78.98;101351.56;5060115;28;20843;-73
2022/01/31 01:02:18;;;;;;;24.77;5.77;;;;;;;3.68;79.27;101349.81;5056920;28;20236;-73
2022/01/31 01:04:44;;;;;;;32.47;6.23;;;;;;;3.69;79.23;101339.75;5060923;28;20659;-73
2022/01/31 01:07:09;;;;;;;25.63;5.47;;;;;;;3.67;79.64;101336.28;5058413;28;20219;-73
2022/01/31 01:09:35;;;;;;;30.73;5.47;;;;;;;3.65;79.22;101321.81;5057121;28;20237;-72
2022/01/31 01:12:00;;;;;;;27.90;5.80;;;;;;;3.65;78.96;101320.16;5063620;28;20568;-72
2022/01/31 01:14:26;;;;;;;35.97;6.13;;;;;;;3.62;79.07;101309.84;5058969;28;20583;-72
2022/01/31 01:16:51;;;;;;;42.53;6.40;;;;;;;3.61;79.13;101309.75;5066027;28;20621;-73
2022/01/31 01:19:16;;;;;;;31.57;5.83;;;;;;;3.60;79.14;101293.72;5055211;28;20215;-73
2022/01/31 01:21:42;;;;;;;29.63;5.57;;;;;;;3.62;79.35;101279.47;5076138;28;20596;-73
2022/01/31 01:24:07;;;;;;;30.87;5.53;;;;;;;3.64;79.14;101275.34;5056484;28;20193;-73
2022/01/31 01:26:32;;;;;;;27.07;5.60;;;;;;;3.61;78.92;101254.97;5058410;28;20205;-73
2022/01/31 01:29:00;;;;;;;39.97;6.37;;;;;;;3.60;78.92;101248.16;5050064;28;20368;-73
2022/01/31 01:31:27;;;;;;;31.27;6.60;;;;;;;3.59;78.84;101233.72;5060044;28;20195;-73
2022/01/31 01:33:53;;;;;;;36.80;6.90;;;;;;;3.59;78.34;101222.75;5067355;28;20189;-72
2022/01/31 01:36:20;;;;;;;31.07;5.40;;;;;;;3.59;78.73;101220.22;5062088;28;20182;-73
2022/01/31 01:38:46;;;;;;;31.00;5.80;;;;;;;3.51;79.76;101214.75;5060166;28;20185;-73
2022/01/31 01:41:12;;;;;;;26.90;5.60;;;;;;;3.50;79.62;101202.03;5057101;28;20185;-73
2022/01/31 01:43:38;;;;;;;26.87;4.63;;;;;;;3.49;79.31;101185.94;5061938;28;20262;-72
2022/01/31 01:46:04;;;;;;;35.67;6.47;;;;;;;3.49;79.79;101159.78;5053999;28;20197;-73
2022/01/31 01:48:32;;;;;;;34.77;6.83;;;;;;;3.45;79.49;101151.16;5042493;28;20188;-72
2022/01/31 01:50:59;;;;;;;27.83;4.80;;;;;;;3.47;79.94;101138.59;5058413;28;20190;-72
2022/01/31 01:53:25;;;;;;;27.03;6.00;;;;;;;3.46;79.56;101152.91;5056793;28;20989;-73
2022/01/31 01:55:52;;;;;;;30.47;6.03;;;;;;;3.45;79.80;101141.03;5059086;28;20264;-73
2022/01/31 01:58:21;;;;;;;23.17;5.27;;;;;;;3.43;79.79;101136.69;5054019;28;20186;-73
2022/01/31 02:00:52;;;;;;;30.30;5.87;;;;;;;3.41;79.83;101131.53;5064392;28;20216;-73
2022/01/31 02:03:28;;;;;;;26.87;6.00;;;;;;;3.38;79.89;101128.88;5047844;28;20227;-72
2022/01/31 02:05:54;;;;;;;31.27;8.47;;;;;;;3.41;79.17;101133.22;5056037;28;20352;-72
2022/01/31 02:08:20;;;;;;;28.27;6.20;;;;;;;3.37;79.57;101119.53;5053498;28;20181;-73
2022/01/31 02:10:46;;;;;;;25.47;5.70;;;;;;;3.36;79.80;101119.44;5051679;28;20213;-73
2022/01/31 02:13:18;;;;;;;28.57;6.13;;;;;;;3.33;80.04;101104.97;5061762;28;20169;-73
2022/01/31 02:16:12;;;;;;;29.60;5.50;;;;;;;3.35;79.60;101089.88;5060823;28;20225;-73
2022/01/31 02:18:58;;;;;;;30.53;6.07;;;;;;;3.27;79.85;101070.91;5059222;28;20210;-72
2022/01/31 02:21:51;;;;;;;29.80;5.37;;;;;;;3.27;80.45;101054.03;5057277;28;20275;-72
2022/01/31 02:24:49;;;;;;;27.03;5.33;;;;;;;3.28;80.13;101045.69;5057130;28;20585;-73
2022/01/31 02:27:28;;;;;;;29.17;5.27;;;;;;;3.26;80.64;101043.88;5069351;28;20197;-72
2022/01/31 02:29:54;;;;;;;27.77;5.83;;;;;;;3.21;80.28;101030.97;5044297;28;20257;-73
2022/01/31 02:32:22;;;;;;;31.20;5.33;;;;;;;3.23;80.49;101031.94;5066018;28;20173;-73
2022/01/31 02:34:50;;;;;;;34.77;6.13;;;;;;;3.24;80.45;101030.25;5063789;28;20186;-73
2022/01/31 02:37:16;;;;;;;35.13;5.87;;;;;;;3.24;81.04;101022.66;5053199;28;20185;-73
2022/01/31 02:39:42;;;;;;;30.90;6.00;;;;;;;3.23;80.89;101026.00;5057842;28;20568;-73
2022/01/31 02:42:08;;;;;;;33.33;6.43;;;;;;;3.21;81.07;101013.25;5062230;28;20212;-73
2022/01/31 02:44:33;;;;;;;30.40;6.07;;;;;;;3.24;80.55;100998.25;5053647;28;20267;-72
2022/01/31 02:47:20;;;;;;;33.63;6.27;;;;;;;3.23;80.65;100990.59;5068703;28;20188;-73
2022/01/31 02:49:55;;;;;;;30.03;5.80;;;;;;;3.26;80.16;100988.22;5044074;28;20201;-73
2022/01/31 02:52:25;;;;;;;30.77;6.13;;;;;;;3.26;81.07;100976.41;5053229;28;20311;-73
2022/01/31 02:54:50;;;;;;;26.50;5.37;;;;;;;3.27;80.49;100967.19;5063339;28;20177;-73
2022/01/31 02:57:17;;;;;;;27.73;6.00;;;;;;;3.26;79.68;100958.72;5069604;28;20259;-73
2022/01/31 02:59:42;;;;;;;30.03;5.67;;;;;;;3.27;80.47;100960.44;5059034;28;20346;-73
2022/01/31 03:02:08;;;;;;;29.00;4.83;;;;;;;3.25;80.89;100962.03;5061729;28;20204;-73
2022/01/31 03:04:34;;;;;;;26.13;5.23;;;;;;;3.27;81.02;100965.50;5064038;28;20184;-73
2022/01/31 03:07:03;;;;;;;28.17;5.83;;;;;;;3.22;80.59;100959.34;5064314;28;20189;-73
2022/01/31 03:09:29;;;;;;;34.17;5.83;;;;;;;3.27;80.93;100952.84;5069242;28;20556;-73
2022/01/31 03:11:55;;;;;;;28.60;5.37;;;;;;;3.21;81.15;100951.66;5068236;28;20398;-72
2022/01/31 03:14:25;;;;;;;32.40;6.30;;;;;;;3.24;80.72;100947.66;5063335;28;20249;-73
2022/01/31 03:16:53;;;;;;;29.27;6.30;;;;;;;3.24;80.81;100936.66;5064135;28;20804;-73
2022/01/31 03:19:20;;;;;;;29.17;5.97;;;;;;;3.21;81.42;100916.25;5069701;28;20208;-73
2022/01/31 03:21:51;;;;;;;33.37;5.87;;;;;;;3.24;82.29;100902.13;5062745;28;20201;-73
2022/01/31 03:24:17;;;;;;;29.60;5.30;;;;;;;3.22;81.89;100895.25;5066588;28;20208;-73
2022/01/31 03:26:42;;;;;;;30.23;5.23;;;;;;;3.18;81.74;100896.75;5063920;28;20578;-73
2022/01/31 03:29:08;;;;;;;30.00;5.27;;;;;;;3.17;82.63;100882.38;5069072;28;20211;-73
2022/01/31 03:31:33;;;;;;;21.50;4.87;;;;;;;3.12;82.66;100863.56;5065347;28;20204;-73
2022/01/31 03:33:59;;;;;;;24.03;4.80;;;;;;;3.12;82.35;100850.94;5064177;28;20196;-72
2022/01/31 03:36:24;;;;;;;21.93;5.10;;;;;;;3.10;83.05;100836.47;5067661;28;20216;-72
2022/01/31 03:38:50;;;;;;;29.70;5.23;;;;;;;3.09;83.39;100838.13;5055325;28;20216;-72
2022/01/31 03:41:21;;;;;;;20.90;4.97;;;;;;;3.08;83.54;100825.44;5055237;28;20261;-73
2022/01/31 03:43:46;;;;;;;32.10;5.30;;;;;;;3.07;83.73;100826.19;5052753;28;20213;-73
2022/01/31 03:46:12;;;;;;;20.73;4.67;;;;;;;3.03;83.73;100809.16;5063028;28;20178;-73
2022/01/31 03:48:38;;;;;;;23.03;4.67;;;;;;;3.00;83.45;100798.91;5038517;28;20284;-73
2022/01/31 03:51:12;;;;;;;24.13;4.90;;;;;;;2.97;84.79;100796.22;5049729;28;20189;-73
2022/01/31 03:53:38;;;;;;;26.50;4.90;;;;;;;2.99;84.54;100782.84;5055637;28;20212;-73
2022/01/31 03:56:03;;;;;;;27.30;4.73;;;;;;;2.95;84.04;100772.53;5056957;28;20193;-72
2022/01/31 03:58:40;;;;;;;18.07;4.70;;;;;;;3.00;83.80;100761.84;5057496;28;20192;-73
2022/01/31 04:01:12;;;;;;;19.80;4.33;;;;;;;2.99;84.51;100739.84;5062913;28;20182;-73
2022/01/31 04:03:37;;;;;;;25.27;4.43;;;;;;;3.01;84.64;100737.41;5065463;28;20219;-73
2022/01/31 04:06:03;;;;;;;18.43;4.13;;;;;;;3.02;84.83;100726.50;5057309;28;20193;-72
2022/01/31 04:08:28;;;;;;;19.83;4.47;;;;;;;2.98;84.53;100706.91;5065139;28;20212;-73
2022/01/31 04:10:53;;;;;;;28.00;5.47;;;;;;;3.00;84.30;100698.63;5056029;28;20690;-73
2022/01/31 04:13:19;;;;;;;23.40;4.80;;;;;;;2.99;83.66;100693.50;5056406;28;20270;-73
2022/01/31 04:15:45;;;;;;;28.97;4.90;;;;;;;3.00;84.66;100683.47;5056991;28;20326;-73
2022/01/31 04:18:11;;;;;;;21.33;4.77;;;;;;;3.02;84.74;100671.75;5069177;28;20203;-73
2022/01/31 04:20:37;;;;;;;17.53;3.73;;;;;;;2.96;84.56;100657.94;5071483;28;20231;-72
2022/01/31 04:23:13;;;;;;;19.00;4.47;;;;;;;2.95;84.92;100646.97;5071472;28;20217;-73
2022/01/31 04:28:21;;;;;;;13.37;3.40;;;;;;;2.92;84.81;100635.84;5071707;28;20185;-71
2022/01/31 04:31:38;;;;;;;17.40;4.03;;;;;;;2.92;84.07;100620.69;5071886;28;20204;-73
2022/01/31 04:33:37;;;;;;;23.97;4.60;;;;;;;2.90;84.48;100619.75;5043227;28;20236;-73
2022/01/31 04:36:03;;;;;;;20.47;3.70;;;;;;;2.87;85.14;100617.97;5051540;28;20642;-73
2022/01/31 04:38:29;;;;;;;24.20;5.00;;;;;;;2.85;84.41;100619.53;5051373;28;20186;-73
2022/01/31 04:40:55;;;;;;;28.50;4.60;;;;;;;2.88;84.47;100614.63;5051492;28;20227;-73
2022/01/31 04:43:21;;;;;;;16.37;3.57;;;;;;;2.92;85.09;100605.50;5051570;28;20686;-72
2022/01/31 04:45:47;;;;;;;24.07;4.37;;;;;;;2.92;84.56;100598.81;5063000;28;20911;-73
2022/01/31 04:48:14;;;;;;;20.80;4.37;;;;;;;2.93;84.88;100582.84;5070975;28;20305;-73
2022/01/31 04:50:40;;;;;;;21.00;4.50;;;;;;;2.94;85.02;100581.19;5071311;28;20209;-73
2022/01/31 04:53:05;;;;;;;19.97;4.20;;;;;;;2.94;85.07;100571.91;5070645;28;20642;-73
2022/01/31 04:55:31;;;;;;;27.93;4.90;;;;;;;2.90;84.17;100559.09;5066122;28;20197;-73
2022/01/31 04:57:57;;;;;;;24.07;4.57;;;;;;;2.91;84.47;100549.03;5057568;28;20200;-72
2022/01/31 05:00:22;;;;;;;21.07;4.23;;;;;;;2.91;85.07;100538.94;5050915;28;20209;-72
2022/01/31 05:02:47;;;;;;;21.20;4.30;;;;;;;2.89;84.07;100527.88;5051128;28;20573;-72
2022/01/31 05:05:13;;;;;;;20.47;4.07;;;;;;;2.94;84.89;100530.63;5050971;28;20272;-73
2022/01/31 05:07:38;;;;;;;21.13;4.63;;;;;;;2.93;84.89;100526.34;5055708;28;20227;-73
2022/01/31 05:10:04;;;;;;;23.77;5.63;;;;;;;2.93;84.11;100516.22;5069111;28;20252;-73
2022/01/31 05:12:29;;;;;;;22.93;5.50;;;;;;;2.90;84.61;100518.63;5069403;28;20254;-73
2022/01/31 05:14:54;;;;;;;28.20;5.50;;;;;;;2.85;84.50;100507.47;5070473;28;20181;-73
2022/01/31 05:17:20;;;;;;;21.87;5.20;;;;;;;2.87;83.96;100501.66;5070826;28;20223;-72
2022/01/31 05:19:45;;;;;;;27.10;5.13;;;;;;;2.88;84.01;100500.00;5068938;28;20235;-73
2022/01/31 05:22:10;;;;;;;27.57;5.90;;;;;;;2.88;84.58;100493.28;5070705;28;20236;-73
2022/01/31 05:24:35;;;;;;;28.20;5.83;;;;;;;2.91;83.84;100493.44;5070125;28;20578;-73
2022/01/31 05:27:01;;;;;;;26.20;5.87;;;;;;;2.89;83.55;100486.56;5069560;28;20189;-73
2022/01/31 05:29:26;;;;;;;29.73;5.63;;;;;;;2.95;83.83;100485.16;5070401;28;20212;-73
2022/01/31 05:31:53;;;;;;;27.53;5.03;;;;;;;2.94;84.73;100475.84;5069439;28;20189;-73
2022/01/31 05:34:19;;;;;;;24.47;4.97;;;;;;;2.92;84.04;100469.88;5070315;28;20204;-73
2022/01/31 05:36:45;;;;;;;29.23;6.13;;;;;;;2.91;83.29;100475.72;5070675;28;20204;-73
2022/01/31 05:39:11;;;;;;;27.77;5.40;;;;;;;2.95;83.89;100464.94;5070476;28;20232;-73
2022/01/31 05:41:36;;;;;;;25.43;5.73;;;;;;;2.92;83.65;100467.34;5070498;28;20217;-73
2022/01/31 05:44:02;;;;;;;30.93;6.07;;;;;;;2.96;83.11;100460.75;5069232;28;20672;-72
2022/01/31 05:46:27;;;;;;;31.57;6.07;;;;;;;2.95;82.67;100453.97;5070067;28;20216;-72
2022/01/31 05:48:53;;;;;;;29.60;5.87;;;;;;;2.97;82.97;100448.19;5069833;28;20220;-73
2022/01/31 05:51:20;;;;;;;22.83;5.60;;;;;;;2.99;83.01;100450.78;5069027;28;20196;-73
2022/01/31 05:53:47;;;;;;;18.20;4.67;;;;;;;2.99;83.62;100449.09;5069666;28;20250;-73
2022/01/31 05:56:14;;;;;;;28.07;6.17;;;;;;;3.01;83.08;100436.53;5069045;28;20241;-73
2022/01/31 05:58:40;;;;;;;33.13;5.97;;;;;;;2.98;83.03;100429.66;5068478;28;20242;-73
2022/01/31 06:01:06;;;;;;;26.70;6.10;;;;;;;3.03;83.69;100428.19;5070051;28;20958;-73
2022/01/31 06:03:32;;;;;;;27.67;5.97;;;;;;;3.00;83.34;100422.16;5068287;28;20216;-73
2022/01/31 06:05:57;;;;;;;22.93;6.23;;;;;;;3.03;83.05;100423.13;5068567;28;20661;-73
2022/01/31 06:08:22;;;;;;;26.17;6.10;;;;;;;3.03;83.83;100420.63;5069441;28;20275;-72
2022/01/31 06:10:49;;;;;;;30.10;6.43;;;;;;;3.00;83.26;100407.00;5068317;28;20217;-73
2022/01/31 06:13:23;;;;;;;28.77;6.27;;;;;;;3.00;83.33;100412.03;5069188;28;20557;-73
2022/01/31 06:15:48;;;;;;;29.97;5.43;;;;;;;2.99;84.51;100407.78;5069758;28;20223;-73
2022/01/31 06:18:14;;;;;;;28.83;6.07;;;;;;;3.02;84.55;100401.19;5068090;28;20184;-73
2022/01/31 06:20:40;;;;;;;28.37;6.27;;;;;;;2.99;84.31;100403.59;5068021;28;20633;-73
2022/01/31 06:23:06;;;;;;;21.90;5.40;;;;;;;3.02;84.03;100400.31;5069136;28;20217;-73
2022/01/31 06:25:32;;;;;;;27.13;5.73;;;;;;;2.99;84.63;100396.00;5068233;28;20731;-73
2022/01/31 06:27:57;;;;;;;26.50;6.00;;;;;;;2.99;84.42;100395.16;5068013;28;20672;-73
2022/01/31 06:30:23;;;;;;;30.53;6.50;;;;;;;3.01;84.48;100386.84;5068138;28;20278;-72
2022/01/31 06:32:49;;;;;;;34.97;6.00;;;;;;;3.02;84.20;100383.50;5068074;28;20196;-73
2022/01/31 06:35:14;;;;;;;29.43;5.47;;;;;;;3.00;84.04;100385.09;5067942;28;20189;-73
2022/01/31 06:37:40;;;;;;;28.00;5.50;;;;;;;2.94;84.09;100371.34;5069421;28;20187;-73
2022/01/31 06:40:05;;;;;;;23.30;5.60;;;;;;;2.95;84.52;100373.91;5069224;28;20435;-73
2022/01/31 06:42:31;;;;;;;23.33;5.33;;;;;;;2.94;84.85;100373.88;5069339;28;20201;-73
2022/01/31 06:44:57;;;;;;;23.83;5.40;;;;;;;2.95;85.10;100368.00;5067971;28;20197;-73
2022/01/31 06:47:23;;;;;;;33.23;6.67;;;;;;;2.94;85.81;100372.19;5069352;28;20192;-73
2022/01/31 06:49:49;;;;;;;27.83;6.63;;;;;;;2.87;86.20;100374.41;5068930;28;20209;-72
2022/01/31 06:52:14;;;;;;;32.90;6.33;;;;;;;2.84;86.40;100370.09;5069069;28;20264;-73
2022/01/31 06:54:39;;;;;;;24.57;5.67;;;;;;;2.85;85.80;100359.16;5068002;28;20212;-73
2022/01/31 06:57:05;;;;;;;31.33;6.23;;;;;;;2.84;86.76;100359.09;5069609;28;20231;-73
2022/01/31 06:59:31;;;;;;;24.73;6.03;;;;;;;2.81;86.85;100357.31;5067968;28;20208;-73
2022/01/31 07:01:56;;;;;;;28.07;6.13;;;;;;;2.75;87.66;100357.06;5069170;28;20180;-73
2022/01/31 07:04:22;;;;;;;27.97;5.80;;;;;;;2.73;88.20;100358.69;5067757;28;20185;-73
2022/01/31 07:06:47;;;;;;;28.43;6.73;;;;;;;2.80;88.29;100352.22;5069289;28;20581;-73
2022/01/31 07:09:12;;;;;;;41.67;7.33;;;;;;;2.80;88.42;100348.00;5068865;28;20213;-73
2022/01/31 07:11:40;;;;;;;29.77;6.73;;;;;;;2.80;87.44;100342.09;5067735;28;20185;-73
2022/01/31 07:14:13;;;;;;;25.77;9.57;;;;;;;2.77;88.20;100340.31;5069097;28;20243;-73
2022/01/31 07:16:39;;;;;;;38.27;12.33;;;;;;;2.73;88.45;100335.94;5067703;28;20181;-73
2022/01/31 07:19:07;;;;;;;32.00;9.00;;;;;;;2.66;88.81;100330.56;5067378;28;20225;-72
2022/01/31 07:21:46;;;;;;;29.47;8.10;;;;;;;2.73;88.63;100327.47;5068999;28;20193;-72
2022/01/31 07:24:25;;;;;;;28.97;5.77;;;;;;;2.64;89.42;100327.09;5070712;28;20367;-73
2022/01/31 07:26:51;;;;;;;22.67;6.57;;;;;;;2.66;89.47;100328.03;5072757;28;20174;-72
2022/01/31 07:29:19;;;;;;;30.63;7.17;;;;;;;2.63;89.85;100328.78;5071079;28;20258;-73
2022/01/31 07:31:45;;;;;;;31.40;6.50;;;;;;;2.68;89.07;100327.28;5071204;28;20608;-73
2022/01/31 07:34:12;;;;;;;27.67;5.60;;;;;;;2.71;89.05;100329.09;5071247;28;20189;-73
2022/01/31 07:36:38;;;;;;;30.03;6.37;;;;;;;2.73;89.69;100323.28;5054492;28;20208;-73
2022/01/31 07:39:04;;;;;;;33.40;6.67;;;;;;;2.64;89.78;100320.38;5054233;28;20201;-73
2022/01/31 07:41:30;;;;;;;30.13;6.97;;;;;;;2.67;89.65;100319.66;5071404;28;20582;-73
2022/01/31 07:43:55;;;;;;;25.13;5.97;;;;;;;2.69;90.16;100316.38;5072389;28;20205;-73
2022/01/31 07:46:21;;;;;;;28.43;7.00;;;;;;;2.68;89.74;100314.66;5071176;28;20177;-73
2022/01/31 07:48:48;;;;;;;35.57;7.37;;;;;;;2.60;90.34;100321.06;5072046;28;20189;-73
2022/01/31 07:51:14;;;;;;;31.37;6.80;;;;;;;2.59;90.13;100310.88;5072382;28;20599;-73
2022/01/31 07:53:39;;;;;;;27.23;6.73;;;;;;;2.58;90.74;100315.06;5071992;28;20230;-73
2022/01/31 07:56:08;;;;;;;20.53;6.67;;;;;;;2.60;89.90;100312.59;5070890;28;20193;-73
2022/01/31 07:58:34;;;;;;;24.10;6.27;;;;;;;2.62;90.56;100311.00;5071936;28;20196;-73
2022/01/31 08:01:00;;;;;;;29.93;7.00;;;;;;;2.59;90.45;100306.69;5070971;28;20238;-73
2022/01/31 08:03:25;;;;;;;34.27;6.83;;;;;;;2.62;90.63;100308.50;5071969;28;20209;-73
2022/01/31 08:05:51;;;;;;;29.80;6.63;;;;;;;2.64;90.60;100300.16;5072183;28;20208;-73
2022/01/31 08:08:16;;;;;;;34.83;6.23;;;;;;;2.57;90.08;100305.75;5071920;28;20227;-73
2022/01/31 08:10:42;;;;;;;28.77;6.43;;;;;;;2.63;90.19;100295.91;5072165;28;20204;-73
2022/01/31 08:13:08;;;;;;;24.37;6.30;;;;;;;2.62;89.92;100294.16;5072066;28;20185;-73
2022/01/31 08:15:45;;;;;;;32.50;7.73;;;;;;;2.62;90.46;100299.22;5071949;28;20189;-73
2022/01/31 08:18:10;;;;;;;25.13;6.57;;;;;;;2.56;90.86;100293.03;5071740;28;20177;-73
2022/01/31 08:20:35;;;;;;;30.03;7.27;;;;;;;2.64;90.90;100294.25;5071844;28;20269;-73
2022/01/31 08:23:01;;;;;;;23.17;6.37;;;;;;;2.57;91.11;100295.66;5071637;28;20269;-73
2022/01/31 08:25:26;;;;;;;26.90;6.30;;;;;;;2.60;91.03;100297.44;5071707;28;20264;-73
2022/01/31 08:27:55;;;;;;;30.50;6.87;;;;;;;2.63;90.84;100292.53;5071529;28;20181;-73
2022/01/31 08:30:25;;;;;;;29.03;7.43;;;;;;;2.63;91.02;100303.50;5071557;28;20334;-73
2022/01/31 08:32:58;;;;;;;25.10;6.63;;;;;;;2.64;91.30;100302.69;5071584;28;20638;-73
2022/01/31 08:38:08;;;;;;;28.67;7.10;;;;;;;2.64;90.60;100294.25;5071248;28;20189;-73
2022/01/31 08:40:33;;;;;;;25.40;6.80;;;;;;;2.65;91.44;100294.31;5071755;28;20208;-73
2022/01/31 08:42:58;;;;;;;27.03;6.77;;;;;;;2.66;90.92;100296.03;5071225;28;20266;-73
2022/01/31 08:45:24;;;;;;;22.50;6.17;;;;;;;2.55;91.28;100297.25;5071185;28;20674;-72
2022/01/31 08:47:49;;;;;;;30.70;6.80;;;;;;;2.60;91.83;100297.44;5071058;28;20213;-73
2022/01/31 08:50:15;;;;;;;31.47;7.40;;;;;;;2.60;91.40;100299.97;5069895;28;20712;-73
2022/01/31 08:52:40;;;;;;;24.47;6.43;;;;;;;2.65;91.45;100290.91;5069466;28;20242;-73
2022/01/31 08:55:07;;;;;;;31.10;7.47;;;;;;;2.74;91.37;100291.28;5069632;28;20200;-73
2022/01/31 08:57:32;;;;;;;25.90;8.30;;;;;;;2.70;91.74;100281.84;5069679;28;20185;-73
2022/01/31 09:00:00;;;;;;;37.17;9.17;;;;;;;2.75;92.09;100288.81;5070668;28;20235;-73
2022/01/31 09:02:37;;;;;;;25.50;7.10;;;;;;;2.82;91.86;100283.22;5069704;28;20221;-73
2022/01/31 09:05:03;;;;;;;23.93;7.73;;;;;;;2.82;90.61;100280.72;5070969;28;20176;-73
2022/01/31 09:07:28;;;;;;;27.70;7.33;;;;;;;2.95;90.50;100279.53;5070923;28;20641;-73
2022/01/31 09:09:54;;;;;;;23.07;6.90;;;;;;;2.99;90.76;100284.75;5070570;28;20232;-73
2022/01/31 09:12:20;;;;;;;21.33;6.93;;;;;;;2.91;91.52;100286.13;5070889;28;20642;-72
2022/01/31 09:14:46;;;;;;;29.17;8.03;;;;;;;2.98;90.69;100297.31;5069489;28;20193;-73
2022/01/31 09:17:12;;;;;;;27.57;8.70;;;;;;;3.03;91.70;100301.78;5070830;28;20188;-73
2022/01/31 09:19:37;;;;;;;28.60;8.37;;;;;;;3.10;90.99;100301.22;5070588;28;20209;-73
2022/01/31 09:22:03;;;;;;;21.73;7.13;;;;;;;3.09;90.66;100294.41;5070981;28;20539;-73
2022/01/31 09:24:29;;;;;;;22.27;7.50;;;;;;;3.05;90.33;100296.78;5069788;28;20194;-73
2022/01/31 09:26:55;;;;;;;25.20;8.03;;;;;;;3.13;91.22;100303.88;5071148;28;20211;-73
2022/01/31 09:29:20;;;;;;;29.00;8.20;;;;;;;3.18;90.61;100306.59;5069041;28;20288;-73
2022/01/31 09:31:45;;;;;;;23.17;8.07;;;;;;;3.24;91.18;100309.34;5069303;28;20200;-73
2022/01/31 09:34:11;;;;;;;24.63;7.03;;;;;;;3.35;90.42;100300.53;5070574;28;20181;-73
2022/01/31 09:36:36;;;;;;;18.57;7.53;;;;;;;3.31;91.29;100301.22;5070471;28;20186;-73
2022/01/31 09:39:02;;;;;;;25.00;7.03;;;;;;;3.27;90.69;100297.69;5070192;28;20197;-73
2022/01/31 09:41:29;;;;;;;22.10;7.33;;;;;;;3.28;90.09;100298.56;5070213;28;20181;-73
2022/01/31 09:44:07;;;;;;;21.87;7.47;;;;;;;3.22;90.32;100306.75;5070027;28;20216;-73
2022/01/31 09:46:46;;;;;;;21.03;6.40;;;;;;;3.31;90.36;100297.00;5069955;28;20177;-73
2022/01/31 09:49:12;;;;;;;23.00;7.63;;;;;;;3.26;90.86;100301.03;5068081;28;20205;-73
2022/01/31 09:51:37;;;;;;;22.47;7.63;;;;;;;3.33;90.95;100304.66;5069983;28;20196;-73
2022/01/31 09:54:04;;;;;;;16.73;6.53;;;;;;;3.27;90.49;100312.84;5069767;28;20196;-73
2022/01/31 09:56:33;;;;;;;17.37;6.83;;;;;;;3.32;89.90;100303.78;5070314;28;20196;-73
2022/01/31 09:59:00;;;;;;;18.07;6.67;;;;;;;3.29;90.16;100303.69;5069640;28;20200;-73
2022/01/31 10:01:32;;;;;;;17.30;7.00;;;;;;;3.29;90.35;100310.38;5069873;28;20192;-73
2022/01/31 10:04:00;;;;;;;19.47;7.03;;;;;;;3.30;90.50;100325.63;5069857;28;20220;-72
2022/01/31 10:06:34;;;;;;;22.90;7.73;;;;;;;3.32;89.78;100324.00;5069734;28;20407;-72
2022/01/31 10:09:18;;;;;;;21.77;7.73;;;;;;;3.33;90.49;100327.41;5069536;28;20208;-72
2022/01/31 10:11:53;;;;;;;17.43;7.33;;;;;;;3.38;90.32;100331.88;5068295;28;20294;-72
2022/01/31 10:17:21;;;;;;;19.53;7.60;;;;;;;3.43;90.71;100330.38;5069827;28;20544;-74
2022/01/31 10:19:47;;;;;;;20.13;7.40;;;;;;;3.46;91.22;100327.97;5068046;28;20709;-73
2022/01/31 10:22:15;;;;;;;20.03;7.40;;;;;;;3.42;90.68;100326.13;5068267;28;20219;-73
2022/01/31 10:24:43;;;;;;;20.47;7.50;;;;;;;3.55;89.94;100324.94;5069553;28;20185;-73
2022/01/31 10:27:22;;;;;;;18.37;8.07;;;;;;;3.54;90.26;100324.06;5069491;28;20192;-73
2022/01/31 10:29:52;;;;;;;16.67;6.77;;;;;;;3.57;89.78;100321.66;5069227;28;20204;-73
2022/01/31 10:32:30;;;;;;;16.90;8.23;;;;;;;3.65;89.33;100310.16;5069610;28;20172;-73
2022/01/31 10:34:58;;;;;;;17.23;7.60;;;;;;;3.65;89.82;100312.69;5069632;28;20272;-73
2022/01/31 10:37:28;;;;;;;24.13;8.07;;;;;;;3.77;89.35;100327.47;5068259;28;20623;-73
2022/01/31 10:56:55;;;;;;;21.63;9.10;;;;;;;3.74;89.35;100345.94;5069326;28;20696;-73
2022/01/31 10:59:33;;;;;;;20.30;8.93;;;;;;;3.67;89.05;100350.69;5066625;28;20267;-73
2022/01/31 11:02:00;;;;;;;22.80;8.67;;;;;;;3.67;89.24;100356.63;5073201;28;20169;-73
2022/01/31 11:04:34;;;;;;;23.13;9.57;;;;;;;3.73;89.00;100361.06;5073234;28;20185;-73
2022/01/31 11:07:08;;;;;;;23.77;9.70;;;;;;;3.83;89.46;100366.53;5073120;28;20177;-73
2022/01/31 11:09:34;;;;;;;20.33;9.80;;;;;;;3.83;88.62;100365.66;5072979;28;20208;-72
2022/01/31 11:12:00;;;;;;;15.73;8.43;;;;;;;3.82;89.07;100376.59;5071622;28;20177;-72
2022/01/31 11:14:26;;;;;;;17.53;8.37;;;;;;;3.83;88.49;100379.22;5071700;28;20258;-72
2022/01/31 11:16:54;;;;;;;15.63;8.23;;;;;;;3.78;88.31;100382.34;5072981;28;20185;-72
2022/01/31 11:19:29;;;;;;;14.97;8.13;;;;;;;3.75;88.46;100383.09;5072535;28;20320;-72
2022/01/31 11:21:59;;;;;;;19.13;8.90;;;;;;;3.86;88.50;100389.44;5072879;28;20656;-72
2022/01/31 11:24:30;;;;;;;16.13;8.47;;;;;;;3.96;88.34;100401.63;5072497;28;20189;-72
2022/01/31 11:27:17;;;;;;;15.77;9.13;;;;;;;3.90;88.48;100396.34;5071307;28;20189;-73
2022/01/31 11:29:48;;;;;;;18.13;9.77;;;;;;;4.04;88.49;100401.91;5072430;28;20219;-73
2022/01/31 11:32:14;;;;;;;18.50;9.30;;;;;;;4.10;88.08;100408.06;5071272;28;20177;-73
2022/01/31 11:34:43;;;;;;;36.00;17.40;;;;;;;4.14;87.78;100409.91;5071327;28;20571;-73
2022/01/31 11:37:10;;;;;;;24.33;11.93;;;;;;;4.18;87.91;100414.31;5071241;28;20181;-73
2022/01/31 11:39:42;;;;;;;19.93;9.67;;;;;;;4.12;88.15;100411.56;5070884;28;21115;-73
2022/01/31 11:42:09;;;;;;;19.63;8.87;;;;;;;4.15;87.80;100409.09;5072423;28;20187;-73
2022/01/31 11:44:44;;;;;;;20.93;8.47;;;;;;;4.27;87.73;100403.63;5072509;28;20189;-73
2022/01/31 11:47:10;;;;;;;13.47;7.07;;;;;;;4.29;87.08;100414.72;5071223;28;20629;-73
2022/01/31 11:50:14;;;;;;;16.23;7.80;;;;;;;4.47;86.03;100412.84;5070720;28;20583;-73
2022/01/31 11:52:53;;;;;;;13.13;7.60;;;;;;;4.57;86.17;100408.16;5072349;28;20188;-73